Time;durP1;ratioP1;P1;durP2;ratioP2;P2;SDS_P1;SDS_P2;PMS_P1;PMS_P2;Temp;Humidity;BMP_temperature;BMP_pressure;BME280_temperature;BME280_humidity;BME280_pressure;Samples;Min_cycle;Max_cycle;Signal;HPM_P1;HPM_P2
2021/05/06 00:32:57;;;;;;;1999.90;999.90;;;15.60;99.90;;;;;;5113539;28;20160;-53
2021/05/06 00:35:29;;;;;;;1999.90;999.90;;;15.80;99.90;;;;;;5113412;28;20186;-54
2021/05/06 01:05:39;;;;;;;1999.90;999.90;;;16.70;97.00;;;;;;5113366;28;20212;-48
2021/05/06 01:13:27;;;;;;;1999.90;999.90;;;16.70;98.30;;;;;;5113509;28;20197;-52
2021/05/06 01:15:54;;;;;;;1999.90;999.90;;;16.60;98.20;;;;;;5113053;28;20527;-52
2021/05/06 01:18:22;;;;;;;1999.90;999.90;;;16.40;99.30;;;;;;5113082;28;20198;-49
2021/05/06 01:20:53;;;;;;;1999.90;999.90;;;16.30;99.90;;;;;;5113161;28;20253;-58
2021/05/06 01:23:21;;;;;;;1999.90;999.90;;;16.20;99.90;;;;;;5113109;28;20165;-46
2021/05/06 01:25:55;;;;;;;1999.90;999.90;;;16.10;99.90;;;;;;5113018;28;20176;-54
2021/05/06 01:28:26;;;;;;;1999.90;999.90;;;16.20;99.90;;;;;;5112955;28;20163;-52
2021/05/06 01:31:18;;;;;;;1999.90;999.90;;;16.20;99.90;;;;;;5115904;28;20194;-45
2021/05/06 01:36:17;;;;;;;1999.90;999.90;;;16.10;99.90;;;;;;5116881;28;20506;-53
2021/05/06 01:38:59;;;;;;;1999.90;999.90;;;16.10;99.90;;;;;;5116745;28;20626;-45
2021/05/06 01:44:25;;;;;;;1999.90;999.90;;;16.10;99.90;;;;;;5116759;28;20180;-51
2021/05/06 02:00:02;;;;;;;1999.90;999.90;;;16.00;99.90;;;;;;5116769;28;20208;-58
2021/05/06 02:02:29;;;;;;;1999.90;999.90;;;16.10;99.90;;;;;;5116311;28;20159;-48
2021/05/06 02:04:56;;;;;;;1999.90;999.90;;;16.10;99.90;;;;;;5116294;28;20167;-56
2021/05/06 02:07:23;;;;;;;1999.90;999.90;;;16.10;99.90;;;;;;5116443;28;20259;-50
2021/05/06 02:09:50;;;;;;;1999.90;999.90;;;16.20;99.90;;;;;;5116346;28;20174;-56
2021/05/06 02:12:18;;;;;;;1999.90;999.90;;;16.20;99.90;;;;;;5116033;28;20200;-57
2021/05/06 02:15:04;;;;;;;1999.90;999.90;;;16.30;99.90;;;;;;5116003;28;20660;-49
2021/05/06 02:17:31;;;;;;;1999.90;999.90;;;16.30;99.90;;;;;;5116214;28;20207;-55
2021/05/06 02:19:58;;;;;;;1999.90;999.90;;;16.20;99.90;;;;;;5115968;28;20652;-46
2021/05/06 02:22:25;;;;;;;1999.90;999.90;;;16.20;99.90;;;;;;5116122;28;20198;-56
2021/05/06 02:24:52;;;;;;;1999.90;999.90;;;16.30;99.90;;;;;;5115949;28;20502;-44
2021/05/06 02:27:19;;;;;;;1999.90;999.90;;;16.30;99.90;;;;;;5115902;28;20163;-57
2021/05/06 02:29:47;;;;;;;1999.90;999.90;;;16.30;99.90;;;;;;5115830;28;20203;-48
2021/05/06 02:32:15;;;;;;;1999.90;999.90;;;16.30;99.90;;;;;;5115747;28;20202;-58
2021/05/06 02:34:42;;;;;;;1999.90;999.90;;;16.20;99.90;;;;;;5115705;28;20175;-45
2021/05/06 02:37:10;;;;;;;1999.90;999.90;;;16.20;99.90;;;;;;5115626;28;20277;-54
2021/05/06 02:39:37;;;;;;;1999.90;999.90;;;16.20;99.90;;;;;;5115526;28;20534;-55
2021/05/06 02:42:04;;;;;;;1999.90;999.90;;;16.20;99.90;;;;;;5115361;28;20195;-57
2021/05/06 02:44:35;;;;;;;1999.90;999.90;;;16.30;99.90;;;;;;5115490;28;20183;-56
2021/05/06 02:47:02;;;;;;;1999.90;999.90;;;16.30;99.90;;;;;;5115324;28;20613;-49
2021/05/06 02:49:30;;;;;;;1999.90;999.90;;;16.30;99.90;;;;;;5115488;28;20170;-51
2021/05/06 02:52:06;;;;;;;1999.90;999.90;;;16.20;99.90;;;;;;5115519;28;20634;-56
2021/05/06 02:54:39;;;;;;;1999.90;999.90;;;16.20;99.90;;;;;;5115060;28;20708;-47
2021/05/06 02:57:21;;;;;;;1999.90;999.90;;;16.20;99.90;;;;;;5115169;28;20561;-56
2021/05/06 03:02:51;;;;;;;1999.90;999.90;;;16.10;99.90;;;;;;5115270;28;20173;-51
2021/05/06 03:05:21;;;;;;;1999.90;999.90;;;16.10;99.90;;;;;;5115034;28;20195;-49
2021/05/06 03:07:56;;;;;;;1999.90;999.90;;;16.10;99.90;;;;;;5114932;28;20591;-54
2021/05/06 03:10:40;;;;;;;1999.90;999.90;;;16.10;99.90;;;;;;5114878;28;20620;-51
2021/05/06 03:24:16;;;;;;;1999.90;999.90;;;16.10;99.90;;;;;;5114836;28;20162;-53
2021/05/06 03:26:44;;;;;;;1999.90;999.90;;;16.10;99.90;;;;;;5114517;28;20182;-45
2021/05/06 03:29:15;;;;;;;1999.90;999.90;;;16.10;99.90;;;;;;5114525;28;20206;-49
2021/05/06 03:34:47;;;;;;;1999.90;999.90;;;16.20;99.90;;;;;;5114818;28;20158;-47
2021/05/06 04:12:49;;;;;;;1999.90;999.90;;;16.30;99.90;;;;;;5114180;28;20233;-53
2021/05/06 04:26:36;;;;;;;1999.90;999.90;;;16.20;99.90;;;;;;5113423;28;20190;-59
2021/05/06 04:37:16;;;;;;;1999.90;999.90;;;16.10;99.90;;;;;;5113409;28;20214;-57
2021/05/06 04:39:48;;;;;;;1999.90;999.90;;;16.00;99.90;;;;;;5113246;28;20258;-58
2021/05/06 04:59:16;;;;;;;1999.90;999.90;;;16.20;99.90;;;;;;5113184;28;20224;-49
2021/05/06 05:04:35;;;;;;;1999.90;999.90;;;16.20;99.90;;;;;;5113721;28;20534;-48
2021/05/06 05:12:05;;;;;;;1999.90;999.90;;;16.20;99.90;;;;;;5116990;28;20262;-58
2021/05/06 05:20:16;;;;;;;1999.90;999.90;;;16.20;99.90;;;;;;5071341;28;20680;-50
2021/05/06 05:27:59;;;;;;;1999.90;999.90;;;16.20;99.90;;;;;;5116638;28;20147;-51
2021/05/06 05:30:29;;;;;;;1999.90;999.90;;;16.20;99.90;;;;;;5116304;28;20173;-54
2021/05/06 05:32:56;;;;;;;1999.90;999.90;;;16.30;99.90;;;;;;5116445;28;20534;-54
2021/05/06 05:35:37;;;;;;;1999.90;999.90;;;16.20;99.90;;;;;;5116277;28;20181;-52
2021/05/06 05:43:34;;;;;;;1999.90;999.90;;;16.30;99.90;;;;;;5116213;28;20170;-55
2021/05/06 05:56:25;;;;;;;1999.90;999.90;;;16.30;99.90;;;;;;5115919;28;20605;-54
2021/05/06 05:58:53;;;;;;;1999.90;999.90;;;16.30;99.90;;;;;;5115705;28;20629;-58
2021/05/06 06:01:23;;;;;;;1999.90;999.90;;;16.40;99.90;;;;;;5115797;28;20470;-51
2021/05/06 06:03:50;;;;;;;1999.90;999.90;;;16.50;99.90;;;;;;5115625;28;20167;-52
2021/05/06 06:06:17;;;;;;;1999.90;999.90;;;16.50;99.90;;;;;;5115700;28;20190;-47
2021/05/06 06:08:44;;;;;;;1999.90;999.90;;;16.70;99.90;;;;;;5113567;28;20175;-47
2021/05/06 06:11:10;;;;;;;1999.90;999.90;;;17.20;99.90;;;;;;5115083;28;20182;-44
2021/05/06 06:13:37;;;;;;;1999.90;999.90;;;17.20;99.90;;;;;;5115437;28;20167;-46
2021/05/06 06:16:21;;;;;;;1999.90;999.90;;;17.30;99.90;;;;;;5112807;28;20167;-53
2021/05/06 06:18:51;;;;;;;1999.90;999.90;;;17.20;99.90;;;;;;5114763;28;20226;-52
2021/05/06 06:21:34;;;;;;;1999.90;999.90;;;17.20;99.90;;;;;;5114768;28;20171;-55
2021/05/06 06:24:01;;;;;;;1999.90;999.90;;;17.30;99.90;;;;;;5114635;28;20220;-48
2021/05/06 06:26:28;;;;;;;1999.90;999.90;;;17.40;99.90;;;;;;5114684;28;20171;-61
2021/05/06 06:29:01;;;;;;;1999.90;999.90;;;17.40;99.90;;;;;;5114897;28;20187;-61
2021/05/06 06:31:40;;;;;;;1999.90;999.90;;;17.50;99.90;;;;;;5114193;28;20174;-55
2021/05/06 06:34:07;;;;;;;1999.90;999.90;;;17.50;99.90;;;;;;5114653;28;20171;-55
2021/05/06 06:36:34;;;;;;;1999.90;999.90;;;17.50;99.90;;;;;;5114410;28;20622;-62
2021/05/06 06:39:03;;;;;;;1999.90;999.90;;;17.70;99.00;;;;;;5113845;28;20198;-60
2021/05/06 06:41:30;;;;;;;1999.90;999.90;;;17.50;99.90;;;;;;5114675;28;20205;-60
2021/05/06 06:44:00;;;;;;;1999.90;999.90;;;17.50;99.90;;;;;;5114529;28;20626;-64
2021/05/06 06:46:26;;;;;;;1999.90;999.90;;;17.50;99.90;;;;;;5112317;28;20170;-61
2021/05/06 06:48:53;;;;;;;1999.90;999.90;;;17.60;98.50;;;;;;5113617;28;20177;-64
2021/05/06 06:51:20;;;;;;;1999.90;999.90;;;17.80;98.70;;;;;;5113169;28;20167;-64
2021/05/06 06:53:47;;;;;;;1999.90;999.90;;;17.80;98.20;;;;;;5114179;28;20713;-58
2021/05/06 06:56:14;;;;;;;1999.90;999.90;;;18.00;97.10;;;;;;5116858;28;20170;-60
2021/05/06 06:58:41;;;;;;;1999.90;999.90;;;18.10;97.30;;;;;;5113153;28;20218;-60
2021/05/06 07:01:08;;;;;;;1999.90;999.90;;;18.20;97.00;;;;;;5113947;28;20175;-59
2021/05/06 07:03:35;;;;;;;1999.90;999.90;;;18.30;96.50;;;;;;5114234;28;20171;-48
2021/05/06 07:06:02;;;;;;;1999.90;999.90;;;18.50;96.00;;;;;;5113251;28;20175;-46
2021/05/06 07:08:37;;;;;;;1999.90;999.90;;;18.60;96.00;;;;;;5113696;28;20178;-46
2021/05/06 07:11:06;;;;;;;1999.90;999.90;;;18.70;95.40;;;;;;5114202;28;20163;-52
2021/05/06 07:13:33;;;;;;;1999.90;999.90;;;18.70;96.10;;;;;;5113071;28;20250;-49
2021/05/06 07:16:05;;;;;;;1999.90;999.90;;;18.70;96.30;;;;;;5113439;28;20207;-51
2021/05/06 07:18:33;;;;;;;1999.90;999.90;;;18.70;96.60;;;;;;5113718;28;20615;-45
2021/05/06 07:21:01;;;;;;;1999.90;999.90;;;18.70;96.50;;;;;;5112575;28;20173;-50
2021/05/06 07:23:29;;;;;;;1999.90;999.90;;;18.70;96.40;;;;;;5113498;28;20254;-46
2021/05/06 07:25:58;;;;;;;1999.90;999.90;;;18.60;96.20;;;;;;5113455;28;20186;-45
2021/05/06 07:28:35;;;;;;;1999.90;999.90;;;18.60;96.40;;;;;;5112018;28;20176;-55
2021/05/06 07:31:04;;;;;;;1999.90;999.90;;;18.60;96.30;;;;;;5113392;28;20185;-50
2021/05/06 07:33:34;;;;;;;1999.90;999.90;;;18.80;96.00;;;;;;5113742;28;20171;-48
2021/05/06 07:36:02;;;;;;;1999.90;999.90;;;18.80;95.70;;;;;;5112763;28;20179;-55
2021/05/06 07:38:33;;;;;;;1999.90;999.90;;;18.90;95.60;;;;;;5113283;28;20203;-51
2021/05/06 07:41:00;;;;;;;1999.90;999.90;;;19.10;95.20;;;;;;5112949;28;20179;-49
2021/05/06 07:43:29;;;;;;;1999.90;999.90;;;19.10;94.90;;;;;;5113173;28;20194;-50
2021/05/06 07:45:57;;;;;;;1999.90;999.90;;;19.20;95.00;;;;;;5113012;28;20477;-57
2021/05/06 07:48:24;;;;;;;1999.90;999.90;;;19.30;95.20;;;;;;5111937;28;20226;-45
2021/05/06 07:50:51;;;;;;;1999.90;999.90;;;19.30;94.60;;;;;;5110067;28;20172;-46
2021/05/06 07:53:34;;;;;;;1999.90;999.90;;;19.30;94.10;;;;;;5113468;28;20171;-45
2021/05/06 07:56:01;;;;;;;1999.90;999.90;;;19.30;93.70;;;;;;5113172;28;20178;-57
2021/05/06 07:58:28;;;;;;;1999.90;999.90;;;19.40;93.90;;;;;;5112620;28;20227;-48
2021/05/06 08:00:55;;;;;;;1999.90;999.90;;;19.50;93.80;;;;;;5113069;28;20202;-44
2021/05/06 08:03:21;;;;;;;1999.90;999.90;;;19.40;93.80;;;;;;5112137;28;20220;-48
2021/05/06 08:05:49;;;;;;;1999.90;999.90;;;19.50;93.60;;;;;;5113130;28;20556;-50
2021/05/06 08:08:16;;;;;;;1999.90;999.90;;;19.50;93.60;;;;;;5112893;28;20175;-49
2021/05/06 08:10:43;;;;;;;1999.90;999.90;;;19.50;93.20;;;;;;5111851;28;20171;-47
2021/05/06 08:13:10;;;;;;;1999.90;999.90;;;19.60;92.40;;;;;;5112941;28;20156;-48
2021/05/06 08:15:36;;;;;;;1999.90;999.90;;;19.70;92.00;;;;;;5112790;28;20246;-44
2021/05/06 08:18:03;;;;;;;1999.90;999.90;;;19.70;91.50;;;;;;5111690;28;20272;-55
2021/05/06 08:20:31;;;;;;;1999.90;999.90;;;19.80;91.40;;;;;;5112581;28;20625;-40
2021/05/06 08:22:58;;;;;;;1999.90;999.90;;;19.80;91.30;;;;;;5112623;28;20236;-43
2021/05/06 08:25:26;;;;;;;1999.90;999.90;;;20.00;91.20;;;;;;5112352;28;20583;-42
2021/05/06 08:27:53;;;;;;;1999.90;999.90;;;20.00;90.10;;;;;;5112617;28;20167;-50
2021/05/06 08:30:20;;;;;;;1999.90;999.90;;;20.10;90.00;;;;;;5112805;28;20156;-47
2021/05/06 08:32:46;;;;;;;1999.90;999.90;;;20.30;88.50;;;;;;5111730;28;20175;-44
2021/05/06 08:35:14;;;;;;;1999.90;999.90;;;20.30;86.40;;;;;;5112281;28;20174;-45
2021/05/06 08:37:40;;;;;;;1999.90;999.90;;;20.30;86.30;;;;;;5111827;28;20203;-48
2021/05/06 08:40:08;;;;;;;1999.90;999.90;;;20.30;87.30;;;;;;5111292;28;20652;-48
2021/05/06 08:42:35;;;;;;;1999.90;999.90;;;20.30;88.60;;;;;;5112663;28;20163;-50
2021/05/06 08:45:03;;;;;;;1999.90;999.90;;;20.30;88.10;;;;;;5112226;28;20258;-48
2021/05/06 08:47:32;;;;;;;1999.90;999.90;;;20.30;86.20;;;;;;5111676;28;20205;-50
2021/05/06 08:49:59;;;;;;;1999.90;999.90;;;20.30;87.10;;;;;;5112002;28;20199;-48
2021/05/06 08:52:27;;;;;;;1999.90;999.90;;;20.40;87.50;;;;;;5111722;28;20171;-41
2021/05/06 08:54:56;;;;;;;1999.90;999.90;;;20.30;87.70;;;;;;5112133;28;20664;-42
2021/05/06 08:57:27;;;;;;;1999.90;999.90;;;20.30;86.00;;;;;;5111949;28;20688;-43
2021/05/06 08:59:54;;;;;;;1999.90;999.90;;;20.40;86.00;;;;;;5110551;28;20546;-43
2021/05/06 09:02:22;;;;;;;1999.90;999.90;;;20.40;85.30;;;;;;5112138;28;20522;-40
2021/05/06 09:04:49;;;;;;;1999.90;999.90;;;20.50;85.40;;;;;;5112449;28;20170;-45
2021/05/06 09:07:16;;;;;;;1999.90;999.90;;;20.50;84.30;;;;;;5112743;28;20178;-42
2021/05/06 09:09:52;;;;;;;1999.90;999.90;;;20.70;85.10;;;;;;5112654;28;20521;-44
2021/05/06 09:12:38;;;;;;;1999.90;999.90;;;21.00;82.90;;;;;;5112671;28;20311;-46
2021/05/06 09:15:17;;;;;;;1999.90;999.90;;;21.40;81.90;;;;;;5112872;28;20155;-45
2021/05/06 09:17:44;;;;;;;1999.90;999.90;;;21.50;79.80;;;;;;5112726;28;20182;-48
2021/05/06 09:20:16;;;;;;;1999.90;999.90;;;21.70;77.30;;;;;;5112636;28;20169;-46
2021/05/06 09:22:44;;;;;;;1999.90;999.90;;;21.60;81.70;;;;;;5112542;28;20179;-47
2021/05/06 09:25:34;;;;;;;1999.90;999.90;;;21.50;81.90;;;;;;5112678;28;20618;-44
2021/05/06 09:28:11;;;;;;;1999.90;999.90;;;21.20;82.50;;;;;;5112591;28;20641;-46
2021/05/06 09:30:46;;;;;;;1999.90;999.90;;;21.20;84.20;;;;;;5112577;28;20147;-46
2021/05/06 09:33:13;;;;;;;1999.90;999.90;;;21.60;81.80;;;;;;5112700;28;20166;-45
2021/05/06 09:35:47;;;;;;;1999.90;999.90;;;21.60;81.90;;;;;;5112609;28;20172;-46
2021/05/06 09:38:30;;;;;;;1999.90;999.90;;;21.50;81.80;;;;;;5112318;28;20198;-46
2021/05/06 09:41:03;;;;;;;1999.90;999.90;;;21.40;82.40;;;;;;5112794;28;20147;-45
2021/05/06 09:43:31;;;;;;;1999.90;999.90;;;21.60;83.20;;;;;;5112732;28;20635;-46
2021/05/06 09:45:59;;;;;;;1999.90;999.90;;;21.40;82.50;;;;;;5112484;28;20183;-47
2021/05/06 09:48:27;;;;;;;1999.90;999.90;;;21.00;82.80;;;;;;5112578;28;20527;-49
2021/05/06 09:51:03;;;;;;;1999.90;999.90;;;21.00;85.30;;;;;;5113708;28;20175;-54
2021/05/06 09:53:32;;;;;;;1999.90;999.90;;;20.90;83.90;;;;;;5116169;28;20226;-49
2021/05/06 09:56:01;;;;;;;1999.90;999.90;;;20.70;84.40;;;;;;5116116;28;20163;-48
2021/05/06 09:58:31;;;;;;;1999.90;999.90;;;20.50;85.50;;;;;;5116162;28;20657;-55
2021/05/06 10:01:08;;;;;;;1999.90;999.90;;;20.60;86.60;;;;;;5116007;28;20190;-47
2021/05/06 10:03:35;;;;;;;1999.90;999.90;;;20.60;87.50;;;;;;5115798;28;20159;-46
2021/05/06 10:06:13;;;;;;;1999.90;999.90;;;20.80;86.90;;;;;;5115872;28;20220;-52
2021/05/06 10:08:40;;;;;;;1999.90;999.90;;;21.00;84.20;;;;;;5116019;28;20630;-52
2021/05/06 10:11:11;;;;;;;1999.90;999.90;;;21.10;82.60;;;;;;5115964;28;20155;-50
2021/05/06 10:13:47;;;;;;;1999.90;999.90;;;21.20;82.40;;;;;;5115954;28;20190;-47
2021/05/06 10:28:35;;;;;;;1999.90;999.90;;;21.30;79.60;;;;;;5069661;28;20547;-45
2021/05/06 10:31:05;;;;;;;1999.90;999.90;;;21.50;81.00;;;;;;5069587;28;20165;-48
2021/05/06 10:33:34;;;;;;;1999.90;999.90;;;21.40;83.20;;;;;;5069709;28;20207;-50
2021/05/06 10:36:04;;;;;;;1999.90;999.90;;;21.40;84.00;;;;;;5069385;28;20204;-59
2021/05/06 10:38:39;;;;;;;1999.90;999.90;;;21.60;82.50;;;;;;5069520;28;20184;-47
2021/05/06 10:41:29;;;;;;;1999.90;999.90;;;21.90;81.10;;;;;;5069385;28;20167;-53
2021/05/06 10:44:18;;;;;;;1999.90;999.90;;;22.40;75.40;;;;;;5069569;28;20234;-46
2021/05/06 10:47:01;;;;;;;1999.90;999.90;;;22.50;73.90;;;;;;5068910;28;20189;-49
2021/05/06 10:49:30;;;;;;;1999.90;999.90;;;22.70;73.60;;;;;;5069656;28;20218;-54
2021/05/06 10:52:00;;;;;;;1999.90;999.90;;;22.80;75.30;;;;;;5069253;28;20199;-53
2021/05/06 10:54:53;;;;;;;1999.90;999.90;;;22.70;76.60;;;;;;5069032;28;20208;-46
2021/05/06 10:57:22;;;;;;;1999.90;999.90;;;22.60;73.60;;;;;;5067413;28;20220;-48
2021/05/06 10:59:50;;;;;;;1999.90;999.90;;;22.50;72.20;;;;;;5069131;28;20184;-52
2021/05/06 11:02:42;;;;;;;1999.90;999.90;;;22.50;72.70;;;;;;5068970;28;20169;-47
2021/05/06 11:05:14;;;;;;;1999.90;999.90;;;22.90;71.60;;;;;;5069344;28;20173;-46
2021/05/06 11:07:41;;;;;;;1999.90;999.90;;;23.00;73.30;;;;;;5069023;28;20165;-46
2021/05/06 11:10:09;;;;;;;1999.90;999.90;;;23.10;73.60;;;;;;5068679;28;20210;-46
2021/05/06 11:12:40;;;;;;;1999.90;999.90;;;23.30;73.30;;;;;;5068804;28;20642;-48
2021/05/06 11:15:10;;;;;;;1999.90;999.90;;;23.40;72.30;;;;;;5068708;28;20662;-47
2021/05/06 11:17:43;;;;;;;1999.90;999.90;;;23.30;72.80;;;;;;5068450;28;20213;-54
2021/05/06 11:20:12;;;;;;;1999.90;999.90;;;23.50;73.30;;;;;;5068045;28;20164;-50
2021/05/06 11:22:42;;;;;;;1999.90;999.90;;;23.60;72.80;;;;;;5068469;28;20191;-57
2021/05/06 11:25:41;;;;;;;1999.90;999.90;;;23.70;66.90;;;;;;5068509;28;20172;-57
2021/05/06 11:28:27;;;;;;;1999.90;999.90;;;23.90;65.60;;;;;;5062231;28;20217;-56
2021/05/06 11:30:55;;;;;;;1999.90;999.90;;;23.80;66.00;;;;;;5054952;28;20531;-59
2021/05/06 11:33:22;;;;;;;1999.90;999.90;;;23.90;65.60;;;;;;5055104;28;20192;-57
2021/05/06 11:36:03;;;;;;;1999.90;999.90;;;23.80;64.00;;;;;;5054971;28;20165;-56
2021/05/06 11:38:39;;;;;;;1999.90;999.90;;;23.70;65.10;;;;;;5055024;28;20157;-51
2021/05/06 11:41:10;;;;;;;1999.90;999.90;;;23.50;75.70;;;;;;5055113;28;20168;-51
2021/05/06 11:43:57;;;;;;;1999.90;999.90;;;23.80;67.80;;;;;;5054899;28;20180;-57
2021/05/06 11:46:28;;;;;;;1999.90;999.90;;;24.10;65.10;;;;;;5054997;28;20211;-56
2021/05/06 11:48:58;;;;;;;1999.90;999.90;;;24.00;63.20;;;;;;5054692;28;20628;-51
2021/05/06 11:51:42;;;;;;;1999.90;999.90;;;23.90;64.70;;;;;;5054560;28;20184;-56
2021/05/06 11:54:12;;;;;;;1999.90;999.90;;;23.80;65.30;;;;;;5054643;28;20166;-58
2021/05/06 11:56:50;;;;;;;1999.90;999.90;;;23.80;64.50;;;;;;5054847;28;20283;-59
2021/05/06 11:59:23;;;;;;;1999.90;999.90;;;23.80;67.80;;;;;;5053204;28;20354;-49
2021/05/06 12:01:51;;;;;;;1999.90;999.90;;;23.60;71.10;;;;;;5054331;28;20677;-59
2021/05/06 12:04:31;;;;;;;1999.90;999.90;;;23.40;73.30;;;;;;5054662;28;20505;-58
2021/05/06 12:06:58;;;;;;;1999.90;999.90;;;23.20;74.20;;;;;;5054317;28;20153;-58
2021/05/06 12:09:29;;;;;;;1999.90;999.90;;;23.30;74.00;;;;;;5054784;28;20176;-59
2021/05/06 12:11:57;;;;;;;1999.90;999.90;;;23.20;72.00;;;;;;5054508;28;20184;-53
2021/05/06 12:14:38;;;;;;;1999.90;999.90;;;23.40;72.80;;;;;;5054596;28;20177;-59
2021/05/06 12:17:08;;;;;;;1999.90;999.90;;;23.30;75.10;;;;;;5052869;28;20209;-55
2021/05/06 12:19:43;;;;;;;1999.90;999.90;;;23.30;74.50;;;;;;5054207;28;20168;-58
2021/05/06 12:22:10;;;;;;;1999.90;999.90;;;22.90;75.80;;;;;;5054189;28;20263;-46
2021/05/06 12:24:49;;;;;;;1999.90;999.90;;;22.60;79.30;;;;;;5054475;28;20169;-44
2021/05/06 12:27:26;;;;;;;1999.90;999.90;;;21.90;82.60;;;;;;5054065;28;20225;-46
2021/05/06 12:30:13;;;;;;;1999.90;999.90;;;21.60;85.80;;;;;;5054212;28;20196;-52
2021/05/06 12:32:46;;;;;;;1999.90;999.90;;;21.30;86.40;;;;;;5054080;28;20173;-58
2021/05/06 12:35:14;;;;;;;1999.90;999.90;;;21.30;87.50;;;;;;5054035;28;20311;-59
2021/05/06 12:37:44;;;;;;;1999.90;999.90;;;21.20;89.00;;;;;;5053953;28;20616;-54
2021/05/06 12:40:13;;;;;;;1999.90;999.90;;;21.00;89.10;;;;;;5052885;28;20658;-51
2021/05/06 12:42:40;;;;;;;1999.90;999.90;;;20.80;90.10;;;;;;5053961;28;20177;-49
2021/05/06 12:45:18;;;;;;;1999.90;999.90;;;20.80;90.30;;;;;;5054240;28;20252;-46
2021/05/06 12:47:49;;;;;;;1999.90;999.90;;;20.80;90.20;;;;;;5053542;28;20510;-53
2021/05/06 12:50:29;;;;;;;1999.90;999.90;;;20.80;90.60;;;;;;5053500;28;20243;-49
2021/05/06 12:53:06;;;;;;;1999.90;999.90;;;20.70;90.60;;;;;;5053890;28;20183;-52
2021/05/06 12:55:39;;;;;;;1999.90;999.90;;;20.70;90.80;;;;;;5053509;28;20165;-47
2021/05/06 12:58:23;;;;;;;1999.90;999.90;;;20.80;90.70;;;;;;5053652;28;20201;-50
2021/05/06 13:00:57;;;;;;;1999.90;999.90;;;20.80;91.10;;;;;;5053423;28;20165;-63
2021/05/06 13:03:32;;;;;;;1999.90;999.90;;;20.70;91.20;;;;;;5053408;28;20181;-59
2021/05/06 13:06:18;;;;;;;1999.90;999.90;;;20.70;90.50;;;;;;5053449;28;20176;-55
2021/05/06 13:08:47;;;;;;;1999.90;999.90;;;20.70;90.80;;;;;;5053361;28;20167;-59
2021/05/06 13:11:19;;;;;;;1999.90;999.90;;;20.80;90.70;;;;;;5053425;28;20181;-56
2021/05/06 13:13:47;;;;;;;1999.90;999.90;;;20.80;91.10;;;;;;5053171;28;20161;-50
2021/05/06 13:16:17;;;;;;;1999.90;999.90;;;20.80;91.10;;;;;;5053409;28;20197;-48
2021/05/06 13:19:01;;;;;;;1999.90;999.90;;;20.80;91.20;;;;;;5052948;28;20643;-48
2021/05/06 13:21:28;;;;;;;1999.90;999.90;;;20.80;91.70;;;;;;5053256;28;20180;-46
2021/05/06 13:23:56;;;;;;;1999.90;999.90;;;20.70;91.90;;;;;;5052097;28;20173;-45
2021/05/06 13:26:40;;;;;;;1999.90;999.90;;;20.70;91.70;;;;;;5052879;28;20651;-47
2021/05/06 13:29:13;;;;;;;1999.90;999.90;;;20.70;91.80;;;;;;5053324;28;20634;-53
2021/05/06 13:31:42;;;;;;;1999.90;999.90;;;20.60;91.60;;;;;;5053181;28;20162;-53
2021/05/06 13:34:17;;;;;;;1999.90;999.90;;;20.60;91.40;;;;;;5051795;28;20180;-50
2021/05/06 13:36:46;;;;;;;1999.90;999.90;;;20.50;91.70;;;;;;5052631;28;20235;-49
2021/05/06 13:39:15;;;;;;;1999.90;999.90;;;20.50;92.00;;;;;;5051489;28;20642;-46
2021/05/06 13:41:45;;;;;;;1999.90;999.90;;;20.50;91.90;;;;;;5052512;28;20524;-47
2021/05/06 13:44:18;;;;;;;1999.90;999.90;;;20.40;91.90;;;;;;5052511;28;20495;-53
2021/05/06 13:46:54;;;;;;;1999.90;999.90;;;20.40;92.20;;;;;;5052493;28;20173;-53
2021/05/06 13:49:38;;;;;;;1999.90;999.90;;;20.40;92.20;;;;;;5052920;28;20179;-48
2021/05/06 13:52:05;;;;;;;1999.90;999.90;;;20.40;92.10;;;;;;5052698;28;20156;-48
2021/05/06 13:54:32;;;;;;;1999.90;999.90;;;20.40;92.10;;;;;;5052834;28;20623;-53
2021/05/06 13:56:59;;;;;;;1999.90;999.90;;;20.40;92.00;;;;;;5052877;28;20658;-48
2021/05/06 13:59:26;;;;;;;1999.90;999.90;;;20.40;92.50;;;;;;5052781;28;20204;-47
2021/05/06 14:01:55;;;;;;;1999.90;999.90;;;20.40;92.60;;;;;;5052673;28;20165;-50
2021/05/06 14:04:22;;;;;;;1999.90;999.90;;;20.40;92.30;;;;;;5052505;28;20184;-51
2021/05/06 14:06:49;;;;;;;1999.90;999.90;;;20.40;92.90;;;;;;5052763;28;20166;-48
2021/05/06 14:09:17;;;;;;;1999.90;999.90;;;20.40;92.70;;;;;;5052721;28;20700;-46
2021/05/06 14:11:46;;;;;;;1999.90;999.90;;;20.40;92.60;;;;;;5052540;28;20251;-47
2021/05/06 14:14:14;;;;;;;1999.90;999.90;;;20.50;92.60;;;;;;5052616;28;20537;-47
2021/05/06 14:16:41;;;;;;;1999.90;999.90;;;20.50;92.60;;;;;;5052476;28;20205;-48
2021/05/06 14:19:09;;;;;;;1999.90;999.90;;;20.50;92.90;;;;;;5052120;28;20299;-48
2021/05/06 14:21:38;;;;;;;1999.90;999.90;;;20.50;92.80;;;;;;5052480;28;20169;-50
2021/05/06 14:24:06;;;;;;;1999.90;999.90;;;20.60;91.80;;;;;;5051881;28;20524;-47
2021/05/06 14:26:33;;;;;;;1999.90;999.90;;;20.60;91.50;;;;;;5052317;28;20572;-51
2021/05/06 14:29:00;;;;;;;1999.90;999.90;;;20.70;91.30;;;;;;5052588;28;20714;-48
2021/05/06 14:31:26;;;;;;;1999.90;999.90;;;20.70;92.00;;;;;;5052576;28;20180;-47
2021/05/06 14:33:53;;;;;;;1999.90;999.90;;;20.50;92.50;;;;;;5052532;28;20168;-47
2021/05/06 14:36:21;;;;;;;1999.90;999.90;;;20.30;92.60;;;;;;5052354;28;20196;-46
2021/05/06 14:38:48;;;;;;;1999.90;999.90;;;20.30;93.20;;;;;;5052386;28;20181;-46
2021/05/06 14:41:19;;;;;;;1999.90;999.90;;;20.20;93.40;;;;;;5052575;28;20212;-47
2021/05/06 14:43:46;;;;;;;1999.90;999.90;;;20.20;93.20;;;;;;5051773;28;20185;-56
2021/05/06 14:46:13;;;;;;;1999.90;999.90;;;20.20;93.70;;;;;;5052434;28;20172;-46
2021/05/06 14:48:40;;;;;;;1999.90;999.90;;;20.10;93.60;;;;;;5052370;28;20169;-53
2021/05/06 14:51:07;;;;;;;1999.90;999.90;;;20.10;94.10;;;;;;5052445;28;20173;-55
2021/05/06 14:53:34;;;;;;;1999.90;999.90;;;20.00;94.40;;;;;;5052453;28;20177;-48
2021/05/06 14:56:01;;;;;;;1999.90;999.90;;;19.90;95.30;;;;;;5051167;28;20173;-46
2021/05/06 14:58:30;;;;;;;1999.90;999.90;;;19.90;95.30;;;;;;5052297;28;20188;-53
2021/05/06 15:00:58;;;;;;;1999.90;999.90;;;19.90;94.60;;;;;;5052328;28;20193;-47
2021/05/06 15:03:25;;;;;;;1999.90;999.90;;;19.90;94.90;;;;;;5053491;28;20201;-54
2021/05/06 15:05:51;;;;;;;1999.90;999.90;;;19.80;95.00;;;;;;5055963;28;20169;-48
2021/05/06 15:08:18;;;;;;;1999.90;999.90;;;19.80;95.20;;;;;;5055895;28;20196;-46
2021/05/06 15:10:46;;;;;;;1999.90;999.90;;;19.80;95.00;;;;;;5055723;28;20173;-50
2021/05/06 15:13:13;;;;;;;1999.90;999.90;;;19.70;95.00;;;;;;5055907;28;20169;-45
2021/05/06 15:15:40;;;;;;;1999.90;999.90;;;19.70;94.60;;;;;;5055837;28;20220;-47
2021/05/06 15:18:07;;;;;;;1999.90;999.90;;;19.70;94.60;;;;;;5055705;28;20240;-46
2021/05/06 15:20:34;;;;;;;1999.90;999.90;;;19.80;94.50;;;;;;5055616;28;20628;-50
2021/05/06 15:23:02;;;;;;;1999.90;999.90;;;19.80;94.40;;;;;;5055831;28;20529;-45
2021/05/06 15:25:29;;;;;;;1999.90;999.90;;;19.80;94.10;;;;;;5055397;28;20203;-48
2021/05/06 15:27:56;;;;;;;1999.90;999.90;;;19.70;94.40;;;;;;5055222;28;20282;-47
2021/05/06 15:30:23;;;;;;;1999.90;999.90;;;19.60;94.70;;;;;;5055207;28;20255;-54
2021/05/06 15:32:50;;;;;;;1999.90;999.90;;;19.60;95.10;;;;;;5055284;28;20251;-48
2021/05/06 15:35:18;;;;;;;1999.90;999.90;;;19.60;94.90;;;;;;5055382;28;20165;-46
2021/05/06 15:37:45;;;;;;;1999.90;999.90;;;19.60;95.10;;;;;;5055237;28;20208;-47
2021/05/06 15:40:16;;;;;;;1999.90;999.90;;;19.50;95.10;;;;;;5055366;28;20184;-47
2021/05/06 15:42:43;;;;;;;1999.90;999.90;;;19.50;95.10;;;;;;5055484;28;20180;-46
2021/05/06 15:45:10;;;;;;;1999.90;999.90;;;19.40;94.90;;;;;;5055439;28;20173;-48
2021/05/06 15:47:38;;;;;;;1999.90;999.90;;;19.40;95.30;;;;;;5055189;28;20158;-48
2021/05/06 15:50:07;;;;;;;1999.90;999.90;;;19.30;95.00;;;;;;5055176;28;20176;-50
2021/05/06 15:52:35;;;;;;;1999.90;999.90;;;19.30;95.30;;;;;;5055132;28;20184;-48
2021/05/06 15:55:03;;;;;;;1999.90;999.90;;;19.20;95.40;;;;;;5053685;28;20188;-46